sensor_id;sensor_type;location;lat;lon;timestamp;P1;durP1;ratioP1;P2;durP2;ratioP2
77409;SDS011;66481;51.332;22.804;2023-04-30T00:02:33;18.05;;;9.98;;
77409;SDS011;66481;51.332;22.804;2023-04-30T00:06:34;16.52;;;9.85;;
77409;SDS011;66481;51.332;22.804;2023-04-30T00:10:35;18.75;;;10.32;;
77409;SDS011;66481;51.332;22.804;2023-04-30T00:14:37;17.80;;;10.40;;
77409;SDS011;66481;51.332;22.804;2023-04-30T00:18:38;16.23;;;10.68;;
77409;SDS011;66481;51.332;22.804;2023-04-30T00:22:39;20.45;;;10.88;;
77409;SDS011;66481;51.332;22.804;2023-04-30T00:26:40;21.40;;;11.63;;
77409;SDS011;66481;51.332;22.804;2023-04-30T00:30:43;25.45;;;13.02;;
77409;SDS011;66481;51.332;22.804;2023-04-30T00:34:45;22.92;;;11.80;;
77409;SDS011;66481;51.332;22.804;2023-04-30T00:38:46;20.92;;;12.15;;
77409;SDS011;66481;51.332;22.804;2023-04-30T00:42:47;22.23;;;12.38;;
77409;SDS011;66481;51.332;22.804;2023-04-30T00:46:47;20.63;;;11.38;;
77409;SDS011;66481;51.332;22.804;2023-04-30T00:50:48;16.58;;;10.05;;
77409;SDS011;66481;51.332;22.804;2023-04-30T00:54:50;15.88;;;10.23;;
77409;SDS011;66481;51.332;22.804;2023-04-30T00:58:53;15.77;;;10.48;;
77409;SDS011;66481;51.332;22.804;2023-04-30T01:02:56;17.27;;;9.45;;
77409;SDS011;66481;51.332;22.804;2023-04-30T01:06:58;17.00;;;10.05;;
77409;SDS011;66481;51.332;22.804;2023-04-30T01:15:46;17.70;;;9.40;;
77409;SDS011;66481;51.332;22.804;2023-04-30T01:20:07;16.55;;;8.88;;
77409;SDS011;66481;51.332;22.804;2023-04-30T01:28:29;13.98;;;10.70;;
77409;SDS011;66481;51.332;22.804;2023-04-30T01:32:33;24.25;;;12.05;;
77409;SDS011;66481;51.332;22.804;2023-04-30T01:36:38;17.45;;;11.25;;
77409;SDS011;66481;51.332;22.804;2023-04-30T01:40:52;18.88;;;10.13;;
77409;SDS011;66481;51.332;22.804;2023-04-30T01:45:11;17.60;;;10.25;;
77409;SDS011;66481;51.332;22.804;2023-04-30T01:53:41;15.40;;;10.95;;
77409;SDS011;66481;51.332;22.804;2023-04-30T01:57:51;17.08;;;9.63;;
77409;SDS011;66481;51.332;22.804;2023-04-30T02:01:57;13.75;;;9.45;;
77409;SDS011;66481;51.332;22.804;2023-04-30T02:05:58;22.33;;;10.73;;
77409;SDS011;66481;51.332;22.804;2023-04-30T02:09:59;15.13;;;9.35;;
77409;SDS011;66481;51.332;22.804;2023-04-30T02:14:00;14.75;;;8.90;;
77409;SDS011;66481;51.332;22.804;2023-04-30T02:18:01;16.35;;;10.15;;
77409;SDS011;66481;51.332;22.804;2023-04-30T02:22:02;15.73;;;10.25;;
77409;SDS011;66481;51.332;22.804;2023-04-30T02:26:03;16.73;;;10.13;;
77409;SDS011;66481;51.332;22.804;2023-04-30T02:30:04;14.00;;;9.20;;
77409;SDS011;66481;51.332;22.804;2023-04-30T02:34:05;14.25;;;9.70;;
77409;SDS011;66481;51.332;22.804;2023-04-30T02:38:06;16.23;;;9.88;;
77409;SDS011;66481;51.332;22.804;2023-04-30T02:42:07;14.80;;;10.00;;
77409;SDS011;66481;51.332;22.804;2023-04-30T02:46:09;17.00;;;10.07;;
77409;SDS011;66481;51.332;22.804;2023-04-30T02:50:10;20.38;;;11.23;;
77409;SDS011;66481;51.332;22.804;2023-04-30T02:54:11;18.13;;;11.32;;
77409;SDS011;66481;51.332;22.804;2023-04-30T02:58:11;20.80;;;11.30;;
77409;SDS011;66481;51.332;22.804;2023-04-30T03:02:13;17.17;;;10.30;;
77409;SDS011;66481;51.332;22.804;2023-04-30T03:06:14;15.68;;;9.93;;
77409;SDS011;66481;51.332;22.804;2023-04-30T03:10:15;18.08;;;10.30;;
77409;SDS011;66481;51.332;22.804;2023-04-30T03:14:18;16.70;;;9.68;;
77409;SDS011;66481;51.332;22.804;2023-04-30T03:18:19;17.90;;;9.70;;
77409;SDS011;66481;51.332;22.804;2023-04-30T03:22:20;14.63;;;9.13;;
77409;SDS011;66481;51.332;22.804;2023-04-30T03:26:23;16.55;;;9.98;;
77409;SDS011;66481;51.332;22.804;2023-04-30T03:30:24;17.48;;;9.95;;
77409;SDS011;66481;51.332;22.804;2023-04-30T03:34:25;15.27;;;9.68;;
77409;SDS011;66481;51.332;22.804;2023-04-30T03:38:26;15.43;;;9.25;;
77409;SDS011;66481;51.332;22.804;2023-04-30T03:42:27;17.58;;;9.32;;
77409;SDS011;66481;51.332;22.804;2023-04-30T03:46:28;15.30;;;9.45;;
77409;SDS011;66481;51.332;22.804;2023-04-30T03:50:28;14.15;;;8.68;;
77409;SDS011;66481;51.332;22.804;2023-04-30T03:54:30;12.38;;;8.73;;
77409;SDS011;66481;51.332;22.804;2023-04-30T03:58:31;14.85;;;9.02;;
77409;SDS011;66481;51.332;22.804;2023-04-30T04:02:32;13.00;;;8.18;;
77409;SDS011;66481;51.332;22.804;2023-04-30T04:06:32;13.18;;;8.00;;
77409;SDS011;66481;51.332;22.804;2023-04-30T04:10:33;12.02;;;8.43;;
77409;SDS011;66481;51.332;22.804;2023-04-30T04:14:34;11.40;;;7.85;;
77409;SDS011;66481;51.332;22.804;2023-04-30T04:18:36;11.25;;;7.82;;
77409;SDS011;66481;51.332;22.804;2023-04-30T04:22:37;13.82;;;8.13;;
77409;SDS011;66481;51.332;22.804;2023-04-30T04:26:39;11.57;;;8.40;;
77409;SDS011;66481;51.332;22.804;2023-04-30T04:30:40;11.45;;;7.45;;
77409;SDS011;66481;51.332;22.804;2023-04-30T04:34:42;11.68;;;8.07;;
77409;SDS011;66481;51.332;22.804;2023-04-30T04:38:43;14.52;;;8.48;;
77409;SDS011;66481;51.332;22.804;2023-04-30T04:42:44;10.38;;;7.00;;
77409;SDS011;66481;51.332;22.804;2023-04-30T04:46:45;14.00;;;8.35;;
77409;SDS011;66481;51.332;22.804;2023-04-30T04:50:46;12.00;;;8.10;;
77409;SDS011;66481;51.332;22.804;2023-04-30T04:54:47;12.23;;;8.10;;
77409;SDS011;66481;51.332;22.804;2023-04-30T04:58:48;11.95;;;7.75;;
77409;SDS011;66481;51.332;22.804;2023-04-30T05:02:49;12.52;;;8.18;;
77409;SDS011;66481;51.332;22.804;2023-04-30T05:06:50;14.63;;;8.07;;
77409;SDS011;66481;51.332;22.804;2023-04-30T05:10:51;13.13;;;8.27;;
77409;SDS011;66481;51.332;22.804;2023-04-30T05:14:52;12.45;;;7.60;;
77409;SDS011;66481;51.332;22.804;2023-04-30T05:18:53;12.23;;;7.25;;
77409;SDS011;66481;51.332;22.804;2023-04-30T05:22:54;10.75;;;7.68;;
77409;SDS011;66481;51.332;22.804;2023-04-30T05:26:55;12.73;;;7.57;;
77409;SDS011;66481;51.332;22.804;2023-04-30T05:30:56;14.98;;;9.40;;
77409;SDS011;66481;51.332;22.804;2023-04-30T05:34:57;12.95;;;7.25;;
77409;SDS011;66481;51.332;22.804;2023-04-30T05:38:58;16.38;;;10.23;;
77409;SDS011;66481;51.332;22.804;2023-04-30T05:42:59;10.63;;;8.02;;
77409;SDS011;66481;51.332;22.804;2023-04-30T05:47:00;10.85;;;7.70;;
77409;SDS011;66481;51.332;22.804;2023-04-30T05:51:01;14.98;;;8.80;;
77409;SDS011;66481;51.332;22.804;2023-04-30T05:55:04;9.68;;;6.55;;
77409;SDS011;66481;51.332;22.804;2023-04-30T05:59:05;13.65;;;8.50;;
77409;SDS011;66481;51.332;22.804;2023-04-30T06:03:06;10.55;;;6.47;;
77409;SDS011;66481;51.332;22.804;2023-04-30T06:07:07;11.80;;;7.28;;
77409;SDS011;66481;51.332;22.804;2023-04-30T06:11:09;10.93;;;7.10;;
77409;SDS011;66481;51.332;22.804;2023-04-30T06:15:12;10.13;;;7.47;;
77409;SDS011;66481;51.332;22.804;2023-04-30T06:19:13;11.52;;;7.53;;
77409;SDS011;66481;51.332;22.804;2023-04-30T06:23:14;10.65;;;7.28;;
77409;SDS011;66481;51.332;22.804;2023-04-30T06:27:15;13.00;;;8.40;;
77409;SDS011;66481;51.332;22.804;2023-04-30T06:31:16;11.40;;;7.00;;
77409;SDS011;66481;51.332;22.804;2023-04-30T06:35:17;12.27;;;8.23;;
77409;SDS011;66481;51.332;22.804;2023-04-30T06:39:19;15.48;;;8.20;;
77409;SDS011;66481;51.332;22.804;2023-04-30T06:43:20;11.77;;;8.15;;
77409;SDS011;66481;51.332;22.804;2023-04-30T06:47:21;13.32;;;9.50;;
77409;SDS011;66481;51.332;22.804;2023-04-30T06:51:22;12.70;;;8.88;;
77409;SDS011;66481;51.332;22.804;2023-04-30T06:55:23;14.75;;;10.23;;
77409;SDS011;66481;51.332;22.804;2023-04-30T06:59:26;12.35;;;10.23;;
77409;SDS011;66481;51.332;22.804;2023-04-30T07:03:28;15.73;;;10.07;;
77409;SDS011;66481;51.332;22.804;2023-04-30T07:07:29;17.50;;;12.10;;
77409;SDS011;66481;51.332;22.804;2023-04-30T07:11:30;14.10;;;11.20;;
77409;SDS011;66481;51.332;22.804;2023-04-30T07:15:31;14.95;;;11.30;;
77409;SDS011;66481;51.332;22.804;2023-04-30T07:19:32;19.25;;;12.38;;
77409;SDS011;66481;51.332;22.804;2023-04-30T07:23:34;15.35;;;11.65;;
77409;SDS011;66481;51.332;22.804;2023-04-30T07:27:35;17.55;;;12.27;;
77409;SDS011;66481;51.332;22.804;2023-04-30T07:31:37;19.13;;;13.20;;
77409;SDS011;66481;51.332;22.804;2023-04-30T07:35:38;19.25;;;14.63;;
77409;SDS011;66481;51.332;22.804;2023-04-30T07:39:39;17.30;;;13.40;;
77409;SDS011;66481;51.332;22.804;2023-04-30T07:43:40;14.95;;;12.90;;
77409;SDS011;66481;51.332;22.804;2023-04-30T07:47:42;18.77;;;14.27;;
77409;SDS011;66481;51.332;22.804;2023-04-30T07:51:45;17.83;;;14.82;;
77409;SDS011;66481;51.332;22.804;2023-04-30T07:55:48;20.60;;;15.63;;
77409;SDS011;66481;51.332;22.804;2023-04-30T07:59:50;19.63;;;15.50;;
77409;SDS011;66481;51.332;22.804;2023-04-30T08:03:51;21.67;;;15.13;;
77409;SDS011;66481;51.332;22.804;2023-04-30T08:07:53;19.80;;;15.77;;
77409;SDS011;66481;51.332;22.804;2023-04-30T08:11:54;20.33;;;15.35;;
77409;SDS011;66481;51.332;22.804;2023-04-30T08:15:56;22.08;;;16.73;;
77409;SDS011;66481;51.332;22.804;2023-04-30T08:19:57;23.60;;;16.33;;
77409;SDS011;66481;51.332;22.804;2023-04-30T08:23:57;21.38;;;14.63;;
77409;SDS011;66481;51.332;22.804;2023-04-30T08:27:59;19.48;;;15.15;;
77409;SDS011;66481;51.332;22.804;2023-04-30T08:32:01;97.85;;;53.67;;
77409;SDS011;66481;51.332;22.804;2023-04-30T08:40:05;41.78;;;27.48;;
77409;SDS011;66481;51.332;22.804;2023-04-30T08:44:11;54.05;;;35.63;;
77409;SDS011;66481;51.332;22.804;2023-04-30T08:48:12;28.70;;;24.15;;
77409;SDS011;66481;51.332;22.804;2023-04-30T08:52:15;31.60;;;26.70;;
77409;SDS011;66481;51.332;22.804;2023-04-30T08:56:19;29.48;;;22.88;;
77409;SDS011;66481;51.332;22.804;2023-04-30T09:00:20;42.92;;;34.42;;
77409;SDS011;66481;51.332;22.804;2023-04-30T09:04:21;36.58;;;24.25;;
77409;SDS011;66481;51.332;22.804;2023-04-30T09:12:43;27.27;;;20.38;;
77409;SDS011;66481;51.332;22.804;2023-04-30T09:16:58;25.52;;;19.83;;
77409;SDS011;66481;51.332;22.804;2023-04-30T09:21:00;31.70;;;22.13;;
77409;SDS011;66481;51.332;22.804;2023-04-30T09:25:02;30.10;;;21.65;;
77409;SDS011;66481;51.332;22.804;2023-04-30T09:29:06;30.88;;;23.20;;
77409;SDS011;66481;51.332;22.804;2023-04-30T09:33:10;32.95;;;22.20;;
77409;SDS011;66481;51.332;22.804;2023-04-30T09:37:11;42.97;;;27.90;;
77409;SDS011;66481;51.332;22.804;2023-04-30T09:41:26;46.38;;;29.38;;
77409;SDS011;66481;51.332;22.804;2023-04-30T09:45:44;38.92;;;26.50;;
77409;SDS011;66481;51.332;22.804;2023-04-30T09:49:51;36.50;;;23.45;;
77409;SDS011;66481;51.332;22.804;2023-04-30T09:53:52;36.45;;;23.17;;
77409;SDS011;66481;51.332;22.804;2023-04-30T09:57:54;32.10;;;22.88;;
77409;SDS011;66481;51.332;22.804;2023-04-30T10:01:59;102.40;;;69.78;;
77409;SDS011;66481;51.332;22.804;2023-04-30T10:06:02;30.75;;;19.40;;
77409;SDS011;66481;51.332;22.804;2023-04-30T10:10:07;26.88;;;17.38;;
77409;SDS011;66481;51.332;22.804;2023-04-30T10:14:10;25.67;;;17.38;;
77409;SDS011;66481;51.332;22.804;2023-04-30T10:18:22;30.70;;;19.23;;
77409;SDS011;66481;51.332;22.804;2023-04-30T10:22:31;40.33;;;25.85;;
77409;SDS011;66481;51.332;22.804;2023-04-30T10:26:35;57.20;;;50.83;;
77409;SDS011;66481;51.332;22.804;2023-04-30T10:30:37;34.00;;;30.30;;
77409;SDS011;66481;51.332;22.804;2023-04-30T10:38:51;19.80;;;15.52;;
77409;SDS011;66481;51.332;22.804;2023-04-30T10:42:53;16.55;;;13.55;;
77409;SDS011;66481;51.332;22.804;2023-04-30T10:46:58;19.17;;;13.68;;
77409;SDS011;66481;51.332;22.804;2023-04-30T10:51:01;28.25;;;17.80;;
77409;SDS011;66481;51.332;22.804;2023-04-30T10:55:07;16.30;;;12.82;;
77409;SDS011;66481;51.332;22.804;2023-04-30T10:59:09;14.48;;;11.25;;
77409;SDS011;66481;51.332;22.804;2023-04-30T11:03:11;16.85;;;12.70;;
77409;SDS011;66481;51.332;22.804;2023-04-30T11:07:13;16.05;;;10.18;;
77409;SDS011;66481;51.332;22.804;2023-04-30T11:11:18;21.13;;;12.13;;
77409;SDS011;66481;51.332;22.804;2023-04-30T11:15:24;19.00;;;10.80;;
77409;SDS011;66481;51.332;22.804;2023-04-30T11:19:37;17.45;;;10.30;;
77409;SDS011;66481;51.332;22.804;2023-04-30T11:23:47;14.65;;;9.38;;
77409;SDS011;66481;51.332;22.804;2023-04-30T11:27:49;16.65;;;8.73;;
77409;SDS011;66481;51.332;22.804;2023-04-30T11:31:52;14.38;;;8.55;;
77409;SDS011;66481;51.332;22.804;2023-04-30T11:35:54;12.48;;;8.38;;
77409;SDS011;66481;51.332;22.804;2023-04-30T11:39:58;8.10;;;6.00;;
77409;SDS011;66481;51.332;22.804;2023-04-30T11:44:01;10.10;;;6.10;;
77409;SDS011;66481;51.332;22.804;2023-04-30T11:48:04;9.20;;;6.72;;
77409;SDS011;66481;51.332;22.804;2023-04-30T11:52:05;9.90;;;6.18;;
77409;SDS011;66481;51.332;22.804;2023-04-30T11:56:08;8.10;;;5.30;;
77409;SDS011;66481;51.332;22.804;2023-04-30T12:00:10;10.50;;;5.50;;
77409;SDS011;66481;51.332;22.804;2023-04-30T12:04:18;8.65;;;5.60;;
77409;SDS011;66481;51.332;22.804;2023-04-30T12:08:20;7.05;;;5.35;;
77409;SDS011;66481;51.332;22.804;2023-04-30T12:12:31;8.77;;;6.32;;
77409;SDS011;66481;51.332;22.804;2023-04-30T12:16:42;9.25;;;5.68;;
77409;SDS011;66481;51.332;22.804;2023-04-30T12:20:50;7.85;;;5.55;;
77409;SDS011;66481;51.332;22.804;2023-04-30T12:24:53;6.70;;;4.00;;
77409;SDS011;66481;51.332;22.804;2023-04-30T12:28:56;7.00;;;4.35;;
77409;SDS011;66481;51.332;22.804;2023-04-30T12:32:58;7.05;;;5.07;;
77409;SDS011;66481;51.332;22.804;2023-04-30T12:37:00;7.95;;;4.38;;
77409;SDS011;66481;51.332;22.804;2023-04-30T12:41:04;6.43;;;4.22;;
77409;SDS011;66481;51.332;22.804;2023-04-30T12:45:06;5.13;;;3.47;;
77409;SDS011;66481;51.332;22.804;2023-04-30T13:05:03;6.95;;;4.00;;
77409;SDS011;66481;51.332;22.804;2023-04-30T13:09:05;7.05;;;3.65;;
77409;SDS011;66481;51.332;22.804;2023-04-30T13:13:06;7.97;;;3.70;;
77409;SDS011;66481;51.332;22.804;2023-04-30T13:17:07;5.20;;;3.47;;
77409;SDS011;66481;51.332;22.804;2023-04-30T13:21:11;5.53;;;2.95;;
77409;SDS011;66481;51.332;22.804;2023-04-30T13:25:13;4.78;;;3.22;;
77409;SDS011;66481;51.332;22.804;2023-04-30T13:29:14;6.53;;;3.10;;
77409;SDS011;66481;51.332;22.804;2023-04-30T13:33:18;4.72;;;3.35;;
77409;SDS011;66481;51.332;22.804;2023-04-30T13:37:20;6.15;;;3.00;;
77409;SDS011;66481;51.332;22.804;2023-04-30T13:41:22;5.80;;;2.97;;
77409;SDS011;66481;51.332;22.804;2023-04-30T13:45:23;5.82;;;3.38;;
77409;SDS011;66481;51.332;22.804;2023-04-30T13:49:25;5.65;;;2.60;;
77409;SDS011;66481;51.332;22.804;2023-04-30T13:53:27;3.78;;;2.70;;
77409;SDS011;66481;51.332;22.804;2023-04-30T13:57:28;3.70;;;2.25;;
77409;SDS011;66481;51.332;22.804;2023-04-30T14:01:32;4.45;;;2.33;;
77409;SDS011;66481;51.332;22.804;2023-04-30T14:05:34;3.47;;;2.25;;
77409;SDS011;66481;51.332;22.804;2023-04-30T14:09:36;6.60;;;2.42;;
77409;SDS011;66481;51.332;22.804;2023-04-30T14:13:38;3.90;;;2.60;;
77409;SDS011;66481;51.332;22.804;2023-04-30T14:17:39;4.45;;;2.20;;
77409;SDS011;66481;51.332;22.804;2023-04-30T14:31:03;3.22;;;2.22;;
77409;SDS011;66481;51.332;22.804;2023-04-30T14:35:05;5.47;;;2.65;;
77409;SDS011;66481;51.332;22.804;2023-04-30T14:39:06;6.80;;;2.33;;
77409;SDS011;66481;51.332;22.804;2023-04-30T14:43:08;3.45;;;1.73;;
77409;SDS011;66481;51.332;22.804;2023-04-30T14:47:09;2.67;;;1.85;;
77409;SDS011;66481;51.332;22.804;2023-04-30T14:56:26;5.75;;;1.63;;
77409;SDS011;66481;51.332;22.804;2023-04-30T15:00:27;3.28;;;1.90;;
77409;SDS011;66481;51.332;22.804;2023-04-30T15:04:28;2.03;;;1.45;;
77409;SDS011;66481;51.332;22.804;2023-04-30T15:08:30;5.60;;;1.85;;
77409;SDS011;66481;51.332;22.804;2023-04-30T15:12:31;2.92;;;1.60;;
77409;SDS011;66481;51.332;22.804;2023-04-30T15:16:34;2.60;;;1.60;;
77409;SDS011;66481;51.332;22.804;2023-04-30T15:20:35;4.72;;;1.80;;
77409;SDS011;66481;51.332;22.804;2023-04-30T15:24:36;4.32;;;1.98;;
77409;SDS011;66481;51.332;22.804;2023-04-30T15:28:38;3.42;;;1.70;;
77409;SDS011;66481;51.332;22.804;2023-04-30T15:32:39;3.97;;;1.60;;
77409;SDS011;66481;51.332;22.804;2023-04-30T15:36:41;8.43;;;2.78;;
77409;SDS011;66481;51.332;22.804;2023-04-30T15:40:42;6.28;;;2.40;;
77409;SDS011;66481;51.332;22.804;2023-04-30T15:44:43;3.38;;;1.63;;
77409;SDS011;66481;51.332;22.804;2023-04-30T15:48:45;4.70;;;1.95;;
77409;SDS011;66481;51.332;22.804;2023-04-30T15:52:46;3.10;;;1.60;;
77409;SDS011;66481;51.332;22.804;2023-04-30T15:56:48;2.30;;;1.30;;
77409;SDS011;66481;51.332;22.804;2023-04-30T16:00:49;2.60;;;1.35;;
77409;SDS011;66481;51.332;22.804;2023-04-30T16:04:50;4.18;;;1.95;;
77409;SDS011;66481;51.332;22.804;2023-04-30T16:08:52;3.20;;;1.73;;
77409;SDS011;66481;51.332;22.804;2023-04-30T16:12:53;3.20;;;1.67;;
77409;SDS011;66481;51.332;22.804;2023-04-30T16:16:55;3.05;;;1.75;;
77409;SDS011;66481;51.332;22.804;2023-04-30T16:20:56;4.20;;;1.70;;
77409;SDS011;66481;51.332;22.804;2023-04-30T16:24:57;3.22;;;1.55;;
77409;SDS011;66481;51.332;22.804;2023-04-30T16:28:59;3.00;;;1.55;;
77409;SDS011;66481;51.332;22.804;2023-04-30T16:33:01;2.83;;;1.77;;
77409;SDS011;66481;51.332;22.804;2023-04-30T16:37:03;3.78;;;1.70;;
77409;SDS011;66481;51.332;22.804;2023-04-30T16:41:04;3.67;;;1.42;;
77409;SDS011;66481;51.332;22.804;2023-04-30T16:45:05;3.55;;;1.50;;
77409;SDS011;66481;51.332;22.804;2023-04-30T16:49:07;5.40;;;2.45;;
77409;SDS011;66481;51.332;22.804;2023-04-30T16:53:08;3.80;;;2.38;;
77409;SDS011;66481;51.332;22.804;2023-04-30T16:57:09;6.43;;;2.70;;
77409;SDS011;66481;51.332;22.804;2023-04-30T17:01:11;3.13;;;1.95;;
77409;SDS011;66481;51.332;22.804;2023-04-30T17:05:12;4.03;;;2.85;;
77409;SDS011;66481;51.332;22.804;2023-04-30T17:09:15;5.13;;;2.22;;
77409;SDS011;66481;51.332;22.804;2023-04-30T17:13:16;4.03;;;2.05;;
77409;SDS011;66481;51.332;22.804;2023-04-30T17:17:18;5.68;;;2.90;;
77409;SDS011;66481;51.332;22.804;2023-04-30T17:21:19;4.28;;;2.53;;
77409;SDS011;66481;51.332;22.804;2023-04-30T17:25:20;7.05;;;3.10;;
77409;SDS011;66481;51.332;22.804;2023-04-30T17:29:22;5.82;;;3.13;;
77409;SDS011;66481;51.332;22.804;2023-04-30T17:33:23;6.65;;;2.63;;
77409;SDS011;66481;51.332;22.804;2023-04-30T17:37:26;5.60;;;2.97;;
77409;SDS011;66481;51.332;22.804;2023-04-30T17:41:27;4.78;;;2.67;;
77409;SDS011;66481;51.332;22.804;2023-04-30T17:45:29;6.78;;;2.65;;
77409;SDS011;66481;51.332;22.804;2023-04-30T17:49:31;7.15;;;3.30;;
77409;SDS011;66481;51.332;22.804;2023-04-30T17:53:33;9.23;;;3.38;;
77409;SDS011;66481;51.332;22.804;2023-04-30T17:57:34;5.78;;;2.55;;
77409;SDS011;66481;51.332;22.804;2023-04-30T18:01:36;5.20;;;2.45;;
77409;SDS011;66481;51.332;22.804;2023-04-30T18:05:37;5.88;;;2.30;;
77409;SDS011;66481;51.332;22.804;2023-04-30T18:09:39;3.67;;;1.75;;
77409;SDS011;66481;51.332;22.804;2023-04-30T18:13:40;4.95;;;2.58;;
77409;SDS011;66481;51.332;22.804;2023-04-30T18:17:43;6.68;;;2.38;;
77409;SDS011;66481;51.332;22.804;2023-04-30T18:21:44;2.97;;;1.88;;
77409;SDS011;66481;51.332;22.804;2023-04-30T18:25:44;20.10;;;6.22;;
77409;SDS011;66481;51.332;22.804;2023-04-30T18:29:46;15.68;;;6.18;;
77409;SDS011;66481;51.332;22.804;2023-04-30T18:33:49;6.28;;;2.70;;
77409;SDS011;66481;51.332;22.804;2023-04-30T18:37:53;8.52;;;2.50;;
77409;SDS011;66481;51.332;22.804;2023-04-30T18:41:55;4.85;;;2.40;;
77409;SDS011;66481;51.332;22.804;2023-04-30T18:45:56;4.47;;;1.73;;
77409;SDS011;66481;51.332;22.804;2023-04-30T18:49:58;3.92;;;1.92;;
77409;SDS011;66481;51.332;22.804;2023-04-30T18:53:59;6.18;;;2.47;;
77409;SDS011;66481;51.332;22.804;2023-04-30T18:58:01;5.75;;;3.40;;
77409;SDS011;66481;51.332;22.804;2023-04-30T19:02:03;8.55;;;3.92;;
77409;SDS011;66481;51.332;22.804;2023-04-30T19:06:04;11.55;;;5.35;;
77409;SDS011;66481;51.332;22.804;2023-04-30T19:10:05;9.30;;;4.95;;
77409;SDS011;66481;51.332;22.804;2023-04-30T19:14:07;8.77;;;4.38;;
77409;SDS011;66481;51.332;22.804;2023-04-30T19:18:12;8.63;;;5.63;;
77409;SDS011;66481;51.332;22.804;2023-04-30T19:22:13;7.20;;;3.85;;
77409;SDS011;66481;51.332;22.804;2023-04-30T19:26:15;6.85;;;3.90;;
77409;SDS011;66481;51.332;22.804;2023-04-30T19:30:16;7.53;;;3.60;;
77409;SDS011;66481;51.332;22.804;2023-04-30T19:34:18;7.10;;;3.83;;
77409;SDS011;66481;51.332;22.804;2023-04-30T19:38:19;7.82;;;3.75;;
77409;SDS011;66481;51.332;22.804;2023-04-30T19:42:21;6.50;;;3.78;;
77409;SDS011;66481;51.332;22.804;2023-04-30T19:46:22;7.07;;;4.40;;
77409;SDS011;66481;51.332;22.804;2023-04-30T19:50:23;6.50;;;4.13;;
77409;SDS011;66481;51.332;22.804;2023-04-30T19:54:25;9.73;;;3.88;;
77409;SDS011;66481;51.332;22.804;2023-04-30T19:58:26;9.68;;;4.25;;
77409;SDS011;66481;51.332;22.804;2023-04-30T20:02:27;7.97;;;3.90;;
77409;SDS011;66481;51.332;22.804;2023-04-30T20:06:29;7.10;;;4.05;;
77409;SDS011;66481;51.332;22.804;2023-04-30T20:10:30;5.85;;;4.30;;
77409;SDS011;66481;51.332;22.804;2023-04-30T20:14:36;4.72;;;3.17;;
77409;SDS011;66481;51.332;22.804;2023-04-30T20:18:38;8.98;;;4.05;;
77409;SDS011;66481;51.332;22.804;2023-04-30T20:22:41;7.07;;;3.45;;
77409;SDS011;66481;51.332;22.804;2023-04-30T20:26:42;9.20;;;3.85;;
77409;SDS011;66481;51.332;22.804;2023-04-30T20:30:44;5.88;;;3.67;;
77409;SDS011;66481;51.332;22.804;2023-04-30T20:34:47;9.35;;;4.63;;
77409;SDS011;66481;51.332;22.804;2023-04-30T20:38:47;10.15;;;4.72;;
77409;SDS011;66481;51.332;22.804;2023-04-30T20:42:49;11.43;;;5.60;;
77409;SDS011;66481;51.332;22.804;2023-04-30T20:46:51;13.38;;;5.90;;
77409;SDS011;66481;51.332;22.804;2023-04-30T20:50:52;13.00;;;6.22;;
77409;SDS011;66481;51.332;22.804;2023-04-30T20:54:53;12.80;;;6.00;;
77409;SDS011;66481;51.332;22.804;2023-04-30T20:58:55;11.70;;;6.50;;
77409;SDS011;66481;51.332;22.804;2023-04-30T21:02:56;11.70;;;6.15;;
77409;SDS011;66481;51.332;22.804;2023-04-30T21:06:57;12.10;;;5.05;;
77409;SDS011;66481;51.332;22.804;2023-04-30T21:10:59;11.90;;;5.00;;
77409;SDS011;66481;51.332;22.804;2023-04-30T21:15:00;11.45;;;5.47;;
77409;SDS011;66481;51.332;22.804;2023-04-30T21:19:02;11.43;;;5.38;;
77409;SDS011;66481;51.332;22.804;2023-04-30T21:23:03;12.35;;;6.22;;
77409;SDS011;66481;51.332;22.804;2023-04-30T21:27:06;9.05;;;5.20;;
77409;SDS011;66481;51.332;22.804;2023-04-30T21:31:07;8.93;;;5.00;;
77409;SDS011;66481;51.332;22.804;2023-04-30T21:35:10;10.93;;;4.30;;
77409;SDS011;66481;51.332;22.804;2023-04-30T21:39:11;11.70;;;4.80;;
77409;SDS011;66481;51.332;22.804;2023-04-30T21:43:12;9.27;;;4.63;;
77409;SDS011;66481;51.332;22.804;2023-04-30T21:47:13;10.50;;;5.15;;
77409;SDS011;66481;51.332;22.804;2023-04-30T21:51:15;15.85;;;5.70;;
77409;SDS011;66481;51.332;22.804;2023-04-30T21:55:18;16.45;;;8.10;;
77409;SDS011;66481;51.332;22.804;2023-04-30T21:59:20;16.10;;;8.40;;
77409;SDS011;66481;51.332;22.804;2023-04-30T22:03:22;16.83;;;7.80;;
77409;SDS011;66481;51.332;22.804;2023-04-30T22:07:23;14.57;;;7.18;;
77409;SDS011;66481;51.332;22.804;2023-04-30T22:11:25;10.57;;;6.25;;
77409;SDS011;66481;51.332;22.804;2023-04-30T22:15:28;13.35;;;6.55;;
77409;SDS011;66481;51.332;22.804;2023-04-30T22:19:30;10.60;;;5.88;;
77409;SDS011;66481;51.332;22.804;2023-04-30T22:23:32;11.20;;;4.50;;
77409;SDS011;66481;51.332;22.804;2023-04-30T22:27:34;10.23;;;4.90;;
77409;SDS011;66481;51.332;22.804;2023-04-30T22:31:35;10.18;;;4.80;;
77409;SDS011;66481;51.332;22.804;2023-04-30T22:35:38;8.75;;;4.55;;
77409;SDS011;66481;51.332;22.804;2023-04-30T22:39:41;8.77;;;4.60;;
77409;SDS011;66481;51.332;22.804;2023-04-30T22:43:43;12.20;;;4.20;;
77409;SDS011;66481;51.332;22.804;2023-04-30T22:47:47;10.15;;;4.45;;
77409;SDS011;66481;51.332;22.804;2023-04-30T22:51:49;10.07;;;4.72;;
77409;SDS011;66481;51.332;22.804;2023-04-30T22:55:50;8.02;;;4.85;;
77409;SDS011;66481;51.332;22.804;2023-04-30T22:59:52;7.82;;;4.82;;
77409;SDS011;66481;51.332;22.804;2023-04-30T23:03:53;7.70;;;4.38;;
77409;SDS011;66481;51.332;22.804;2023-04-30T23:07:54;6.80;;;4.00;;
77409;SDS011;66481;51.332;22.804;2023-04-30T23:11:56;7.90;;;4.28;;
77409;SDS011;66481;51.332;22.804;2023-04-30T23:15:57;11.07;;;4.53;;
77409;SDS011;66481;51.332;22.804;2023-04-30T23:19:59;7.55;;;3.85;;
77409;SDS011;66481;51.332;22.804;2023-04-30T23:24:00;8.50;;;4.25;;
77409;SDS011;66481;51.332;22.804;2023-04-30T23:28:03;10.52;;;4.38;;
77409;SDS011;66481;51.332;22.804;2023-04-30T23:32:05;7.63;;;4.53;;
77409;SDS011;66481;51.332;22.804;2023-04-30T23:36:06;9.20;;;3.88;;
77409;SDS011;66481;51.332;22.804;2023-04-30T23:40:07;9.07;;;4.85;;
77409;SDS011;66481;51.332;22.804;2023-04-30T23:44:09;6.40;;;4.20;;
77409;SDS011;66481;51.332;22.804;2023-04-30T23:48:13;11.02;;;5.50;;
77409;SDS011;66481;51.332;22.804;2023-04-30T23:52:15;8.68;;;4.32;;
77409;SDS011;66481;51.332;22.804;2023-04-30T23:56:16;16.98;;;7.22;;
